sensor_id;sensor_type;location;lat;lon;timestamp;pressure;altitude;pressure_sealevel;temperature
71463;BMP180;59266;52.608;13.260;2024-02-26T00:02:07;100061.00;;;1.20
71463;BMP180;59266;52.608;13.260;2024-02-26T00:04:33;100066.00;;;1.20
71463;BMP180;59266;52.608;13.260;2024-02-26T00:07:00;100065.00;;;1.20
71463;BMP180;59266;52.608;13.260;2024-02-26T00:09:27;100052.00;;;1.20
71463;BMP180;59266;52.608;13.260;2024-02-26T00:11:53;100065.00;;;1.20
71463;BMP180;59266;52.608;13.260;2024-02-26T00:14:21;100070.00;;;1.20
71463;BMP180;59266;52.608;13.260;2024-02-26T00:16:48;100051.00;;;1.10
71463;BMP180;59266;52.608;13.260;2024-02-26T00:19:15;100044.00;;;1.00
71463;BMP180;59266;52.608;13.260;2024-02-26T00:21:41;100043.00;;;1.10
71463;BMP180;59266;52.608;13.260;2024-02-26T00:24:10;100049.00;;;1.10
71463;BMP180;59266;52.608;13.260;2024-02-26T00:26:37;100041.00;;;1.10
71463;BMP180;59266;52.608;13.260;2024-02-26T00:29:04;100043.00;;;1.10
71463;BMP180;59266;52.608;13.260;2024-02-26T00:31:31;100044.00;;;1.00
71463;BMP180;59266;52.608;13.260;2024-02-26T00:33:57;100040.00;;;1.00
71463;BMP180;59266;52.608;13.260;2024-02-26T00:36:24;100039.00;;;0.90
71463;BMP180;59266;52.608;13.260;2024-02-26T00:38:51;100026.00;;;0.90
71463;BMP180;59266;52.608;13.260;2024-02-26T00:41:18;100042.00;;;0.80
71463;BMP180;59266;52.608;13.260;2024-02-26T00:43:44;100039.00;;;0.80
71463;BMP180;59266;52.608;13.260;2024-02-26T00:46:11;100026.00;;;0.80
71463;BMP180;59266;52.608;13.260;2024-02-26T00:48:37;100020.00;;;0.80
71463;BMP180;59266;52.608;13.260;2024-02-26T00:51:05;100034.00;;;0.70
71463;BMP180;59266;52.608;13.260;2024-02-26T00:53:31;100034.00;;;0.80
71463;BMP180;59266;52.608;13.260;2024-02-26T00:55:58;100039.00;;;0.80
71463;BMP180;59266;52.608;13.260;2024-02-26T00:58:28;100033.00;;;0.60
71463;BMP180;59266;52.608;13.260;2024-02-26T01:00:54;100022.00;;;0.60
71463;BMP180;59266;52.608;13.260;2024-02-26T01:03:21;100036.00;;;0.50
71463;BMP180;59266;52.608;13.260;2024-02-26T01:05:48;100024.00;;;0.60
71463;BMP180;59266;52.608;13.260;2024-02-26T01:08:14;100034.00;;;0.60
71463;BMP180;59266;52.608;13.260;2024-02-26T01:10:41;100040.00;;;0.50
71463;BMP180;59266;52.608;13.260;2024-02-26T01:13:08;100032.00;;;0.60
71463;BMP180;59266;52.608;13.260;2024-02-26T01:15:34;100030.00;;;0.50
71463;BMP180;59266;52.608;13.260;2024-02-26T01:18:01;100036.00;;;0.50
71463;BMP180;59266;52.608;13.260;2024-02-26T01:20:28;100024.00;;;0.40
71463;BMP180;59266;52.608;13.260;2024-02-26T01:22:54;100040.00;;;0.40
71463;BMP180;59266;52.608;13.260;2024-02-26T01:25:21;100026.00;;;0.40
71463;BMP180;59266;52.608;13.260;2024-02-26T01:27:47;100027.00;;;0.40
71463;BMP180;59266;52.608;13.260;2024-02-26T01:30:14;100026.00;;;0.20
71463;BMP180;59266;52.608;13.260;2024-02-26T01:32:43;100030.00;;;0.20
71463;BMP180;59266;52.608;13.260;2024-02-26T01:35:09;100022.00;;;0.30
71463;BMP180;59266;52.608;13.260;2024-02-26T01:37:38;100025.00;;;0.30
71463;BMP180;59266;52.608;13.260;2024-02-26T01:40:05;100028.00;;;0.30
71463;BMP180;59266;52.608;13.260;2024-02-26T01:42:33;100022.00;;;0.30
71463;BMP180;59266;52.608;13.260;2024-02-26T01:44:59;100022.00;;;0.30
71463;BMP180;59266;52.608;13.260;2024-02-26T01:47:26;100017.00;;;0.20
71463;BMP180;59266;52.608;13.260;2024-02-26T01:49:54;100024.00;;;0.10
71463;BMP180;59266;52.608;13.260;2024-02-26T01:52:21;100012.00;;;0.20
71463;BMP180;59266;52.608;13.260;2024-02-26T01:54:48;100011.00;;;0.20
71463;BMP180;59266;52.608;13.260;2024-02-26T01:57:16;100012.00;;;0.20
71463;BMP180;59266;52.608;13.260;2024-02-26T01:59:42;100017.00;;;0.20
71463;BMP180;59266;52.608;13.260;2024-02-26T02:02:10;100011.00;;;0.10
71463;BMP180;59266;52.608;13.260;2024-02-26T02:04:38;100025.00;;;0.20
71463;BMP180;59266;52.608;13.260;2024-02-26T02:07:05;100006.00;;;0.20
71463;BMP180;59266;52.608;13.260;2024-02-26T02:09:32;100008.00;;;0.20
71463;BMP180;59266;52.608;13.260;2024-02-26T02:11:59;100016.00;;;0.20
71463;BMP180;59266;52.608;13.260;2024-02-26T02:14:27;100004.00;;;0.20
71463;BMP180;59266;52.608;13.260;2024-02-26T02:16:53;99993.00;;;0.20
71463;BMP180;59266;52.608;13.260;2024-02-26T02:19:20;99996.00;;;0.20
71463;BMP180;59266;52.608;13.260;2024-02-26T02:21:47;100018.00;;;0.10
71463;BMP180;59266;52.608;13.260;2024-02-26T02:24:13;100020.00;;;0.10
71463;BMP180;59266;52.608;13.260;2024-02-26T02:26:40;99997.00;;;0.00
71463;BMP180;59266;52.608;13.260;2024-02-26T02:29:07;100016.00;;;0.00
71463;BMP180;59266;52.608;13.260;2024-02-26T02:31:34;100001.00;;;-0.10
71463;BMP180;59266;52.608;13.260;2024-02-26T02:34:00;100013.00;;;-0.20
71463;BMP180;59266;52.608;13.260;2024-02-26T02:36:27;100008.00;;;-0.10
71463;BMP180;59266;52.608;13.260;2024-02-26T02:38:54;100015.00;;;-0.20
71463;BMP180;59266;52.608;13.260;2024-02-26T02:41:20;100013.00;;;-0.20
71463;BMP180;59266;52.608;13.260;2024-02-26T02:43:48;100016.00;;;-0.20
71463;BMP180;59266;52.608;13.260;2024-02-26T02:46:14;100012.00;;;-0.20
71463;BMP180;59266;52.608;13.260;2024-02-26T02:48:41;100012.00;;;-0.20
71463;BMP180;59266;52.608;13.260;2024-02-26T02:51:09;100012.00;;;-0.10
71463;BMP180;59266;52.608;13.260;2024-02-26T02:53:35;100014.00;;;-0.20
71463;BMP180;59266;52.608;13.260;2024-02-26T02:56:02;100017.00;;;-0.10
71463;BMP180;59266;52.608;13.260;2024-02-26T02:58:31;100007.00;;;-0.10
71463;BMP180;59266;52.608;13.260;2024-02-26T03:00:58;100017.00;;;-0.10
71463;BMP180;59266;52.608;13.260;2024-02-26T03:03:26;100013.00;;;-0.20
71463;BMP180;59266;52.608;13.260;2024-02-26T03:05:55;100015.00;;;-0.20
71463;BMP180;59266;52.608;13.260;2024-02-26T03:08:21;100017.00;;;-0.10
71463;BMP180;59266;52.608;13.260;2024-02-26T03:10:48;100016.00;;;-0.20
71463;BMP180;59266;52.608;13.260;2024-02-26T03:13:14;100016.00;;;-0.20
71463;BMP180;59266;52.608;13.260;2024-02-26T03:15:41;100032.00;;;-0.10
71463;BMP180;59266;52.608;13.260;2024-02-26T03:18:08;100027.00;;;-0.20
71463;BMP180;59266;52.608;13.260;2024-02-26T03:20:35;100033.00;;;-0.20
71463;BMP180;59266;52.608;13.260;2024-02-26T03:23:01;100027.00;;;-0.20
71463;BMP180;59266;52.608;13.260;2024-02-26T03:25:28;100033.00;;;-0.20
71463;BMP180;59266;52.608;13.260;2024-02-26T03:27:55;100035.00;;;-0.20
71463;BMP180;59266;52.608;13.260;2024-02-26T03:30:22;100031.00;;;-0.10
71463;BMP180;59266;52.608;13.260;2024-02-26T03:32:48;100024.00;;;-0.10
71463;BMP180;59266;52.608;13.260;2024-02-26T03:35:15;100029.00;;;-0.10
71463;BMP180;59266;52.608;13.260;2024-02-26T03:37:42;100028.00;;;-0.20
71463;BMP180;59266;52.608;13.260;2024-02-26T03:40:09;100024.00;;;-0.20
71463;BMP180;59266;52.608;13.260;2024-02-26T03:42:35;100021.00;;;-0.10
71463;BMP180;59266;52.608;13.260;2024-02-26T03:45:02;100029.00;;;-0.20
71463;BMP180;59266;52.608;13.260;2024-02-26T03:47:29;100031.00;;;-0.10
71463;BMP180;59266;52.608;13.260;2024-02-26T03:49:55;100030.00;;;-0.10
71463;BMP180;59266;52.608;13.260;2024-02-26T03:52:22;100030.00;;;-0.10
71463;BMP180;59266;52.608;13.260;2024-02-26T03:54:48;100040.00;;;-0.20
71463;BMP180;59266;52.608;13.260;2024-02-26T03:57:15;100039.00;;;-0.10
71463;BMP180;59266;52.608;13.260;2024-02-26T03:59:42;100043.00;;;-0.10
71463;BMP180;59266;52.608;13.260;2024-02-26T04:02:08;100046.00;;;-0.10
71463;BMP180;59266;52.608;13.260;2024-02-26T04:04:36;100043.00;;;-0.10
71463;BMP180;59266;52.608;13.260;2024-02-26T04:07:02;100055.00;;;-0.20
71463;BMP180;59266;52.608;13.260;2024-02-26T04:09:31;100060.00;;;-0.20
71463;BMP180;59266;52.608;13.260;2024-02-26T04:11:58;100059.00;;;-0.20
71463;BMP180;59266;52.608;13.260;2024-02-26T04:14:24;100055.00;;;-0.20
71463;BMP180;59266;52.608;13.260;2024-02-26T04:16:51;100051.00;;;-0.20
71463;BMP180;59266;52.608;13.260;2024-02-26T04:19:20;100058.00;;;-0.20
71463;BMP180;59266;52.608;13.260;2024-02-26T04:21:47;100063.00;;;-0.20
71463;BMP180;59266;52.608;13.260;2024-02-26T04:24:13;100059.00;;;-0.30
71463;BMP180;59266;52.608;13.260;2024-02-26T04:26:40;100053.00;;;-0.30
71463;BMP180;59266;52.608;13.260;2024-02-26T04:29:06;100065.00;;;-0.30
71463;BMP180;59266;52.608;13.260;2024-02-26T04:31:33;100063.00;;;-0.30
71463;BMP180;59266;52.608;13.260;2024-02-26T04:34:00;100059.00;;;-0.30
71463;BMP180;59266;52.608;13.260;2024-02-26T04:36:27;100047.00;;;-0.30
71463;BMP180;59266;52.608;13.260;2024-02-26T04:38:53;100063.00;;;-0.30
71463;BMP180;59266;52.608;13.260;2024-02-26T04:41:23;100076.00;;;-0.30
71463;BMP180;59266;52.608;13.260;2024-02-26T04:43:49;100067.00;;;-0.30
71463;BMP180;59266;52.608;13.260;2024-02-26T04:46:16;100083.00;;;-0.30
71463;BMP180;59266;52.608;13.260;2024-02-26T04:48:43;100067.00;;;-0.30
71463;BMP180;59266;52.608;13.260;2024-02-26T04:51:12;100070.00;;;-0.30
71463;BMP180;59266;52.608;13.260;2024-02-26T04:53:39;100078.00;;;-0.30
71463;BMP180;59266;52.608;13.260;2024-02-26T04:56:05;100065.00;;;-0.30
71463;BMP180;59266;52.608;13.260;2024-02-26T04:58:32;100080.00;;;-0.30
71463;BMP180;59266;52.608;13.260;2024-02-26T05:00:58;100086.00;;;-0.30
71463;BMP180;59266;52.608;13.260;2024-02-26T05:03:25;100088.00;;;-0.40
71463;BMP180;59266;52.608;13.260;2024-02-26T05:05:52;100076.00;;;-0.40
71463;BMP180;59266;52.608;13.260;2024-02-26T05:08:18;100093.00;;;-0.40
71463;BMP180;59266;52.608;13.260;2024-02-26T05:10:45;100101.00;;;-0.50
71463;BMP180;59266;52.608;13.260;2024-02-26T05:13:12;100100.00;;;-0.40
71463;BMP180;59266;52.608;13.260;2024-02-26T05:15:40;100098.00;;;-0.50
71463;BMP180;59266;52.608;13.260;2024-02-26T05:18:07;100095.00;;;-0.50
71463;BMP180;59266;52.608;13.260;2024-02-26T05:20:34;100107.00;;;-0.50
71463;BMP180;59266;52.608;13.260;2024-02-26T05:23:02;100104.00;;;-0.50
71463;BMP180;59266;52.608;13.260;2024-02-26T05:25:30;100117.00;;;-0.50
71463;BMP180;59266;52.608;13.260;2024-02-26T05:27:57;100110.00;;;-0.60
71463;BMP180;59266;52.608;13.260;2024-02-26T05:30:24;100119.00;;;-0.60
71463;BMP180;59266;52.608;13.260;2024-02-26T05:32:51;100114.00;;;-0.50
71463;BMP180;59266;52.608;13.260;2024-02-26T05:35:17;100117.00;;;-0.50
71463;BMP180;59266;52.608;13.260;2024-02-26T05:37:44;100113.00;;;-0.50
71463;BMP180;59266;52.608;13.260;2024-02-26T05:40:11;100122.00;;;-0.50
71463;BMP180;59266;52.608;13.260;2024-02-26T05:42:38;100128.00;;;-0.50
71463;BMP180;59266;52.608;13.260;2024-02-26T05:45:05;100129.00;;;-0.50
71463;BMP180;59266;52.608;13.260;2024-02-26T05:47:33;100122.00;;;-0.50
71463;BMP180;59266;52.608;13.260;2024-02-26T05:50:00;100124.00;;;-0.60
71463;BMP180;59266;52.608;13.260;2024-02-26T05:52:27;100126.00;;;-0.50
71463;BMP180;59266;52.608;13.260;2024-02-26T05:54:55;100115.00;;;-0.40
71463;BMP180;59266;52.608;13.260;2024-02-26T05:57:22;100130.00;;;-0.40
71463;BMP180;59266;52.608;13.260;2024-02-26T05:59:49;100129.00;;;-0.40
71463;BMP180;59266;52.608;13.260;2024-02-26T06:02:15;100139.00;;;-0.40
71463;BMP180;59266;52.608;13.260;2024-02-26T06:04:42;100128.00;;;-0.30
71463;BMP180;59266;52.608;13.260;2024-02-26T06:07:09;100147.00;;;-0.40
71463;BMP180;59266;52.608;13.260;2024-02-26T06:09:35;100135.00;;;-0.30
71463;BMP180;59266;52.608;13.260;2024-02-26T06:12:02;100141.00;;;-0.40
71463;BMP180;59266;52.608;13.260;2024-02-26T06:14:29;100147.00;;;-0.30
71463;BMP180;59266;52.608;13.260;2024-02-26T06:16:55;100129.00;;;-0.30
71463;BMP180;59266;52.608;13.260;2024-02-26T06:19:22;100139.00;;;-0.20
71463;BMP180;59266;52.608;13.260;2024-02-26T06:21:49;100143.00;;;-0.10
71463;BMP180;59266;52.608;13.260;2024-02-26T06:24:16;100132.00;;;-0.10
71463;BMP180;59266;52.608;13.260;2024-02-26T06:26:43;100141.00;;;0.00
71463;BMP180;59266;52.608;13.260;2024-02-26T06:29:09;100138.00;;;0.10
71463;BMP180;59266;52.608;13.260;2024-02-26T06:31:36;100143.00;;;0.20
71463;BMP180;59266;52.608;13.260;2024-02-26T06:34:02;100143.00;;;0.20
71463;BMP180;59266;52.608;13.260;2024-02-26T06:36:30;100145.00;;;0.30
71463;BMP180;59266;52.608;13.260;2024-02-26T06:38:58;100147.00;;;0.40
71463;BMP180;59266;52.608;13.260;2024-02-26T06:41:25;100154.00;;;0.50
71463;BMP180;59266;52.608;13.260;2024-02-26T06:43:56;100148.00;;;0.60
71463;BMP180;59266;52.608;13.260;2024-02-26T06:46:22;100150.00;;;0.70
71463;BMP180;59266;52.608;13.260;2024-02-26T06:48:50;100164.00;;;0.80
71463;BMP180;59266;52.608;13.260;2024-02-26T06:51:21;100160.00;;;0.90
71463;BMP180;59266;52.608;13.260;2024-02-26T06:53:48;100167.00;;;1.10
71463;BMP180;59266;52.608;13.260;2024-02-26T06:56:15;100150.00;;;1.20
71463;BMP180;59266;52.608;13.260;2024-02-26T06:58:42;100157.00;;;1.20
71463;BMP180;59266;52.608;13.260;2024-02-26T07:01:08;100153.00;;;1.50
71463;BMP180;59266;52.608;13.260;2024-02-26T07:03:36;100129.00;;;2.20
71463;BMP180;59266;52.608;13.260;2024-02-26T07:06:03;100116.00;;;3.00
71463;BMP180;59266;52.608;13.260;2024-02-26T07:08:30;100137.00;;;3.90
71463;BMP180;59266;52.608;13.260;2024-02-26T07:10:57;100100.00;;;4.30
71463;BMP180;59266;52.608;13.260;2024-02-26T07:13:23;100088.00;;;5.70
71463;BMP180;59266;52.608;13.260;2024-02-26T07:15:50;100070.00;;;7.70
71463;BMP180;59266;52.608;13.260;2024-02-26T07:18:16;100140.00;;;10.60
71463;BMP180;59266;52.608;13.260;2024-02-26T07:20:43;100167.00;;;12.40
71463;BMP180;59266;52.608;13.260;2024-02-26T07:23:10;100178.00;;;13.70
71463;BMP180;59266;52.608;13.260;2024-02-26T07:25:36;100177.00;;;14.90
71463;BMP180;59266;52.608;13.260;2024-02-26T07:28:03;100189.00;;;15.40
71463;BMP180;59266;52.608;13.260;2024-02-26T07:30:29;100181.00;;;15.10
71463;BMP180;59266;52.608;13.260;2024-02-26T07:32:56;100183.00;;;15.80
71463;BMP180;59266;52.608;13.260;2024-02-26T07:35:23;100193.00;;;15.60
71463;BMP180;59266;52.608;13.260;2024-02-26T07:37:49;100188.00;;;15.60
71463;BMP180;59266;52.608;13.260;2024-02-26T07:40:17;100188.00;;;15.30
71463;BMP180;59266;52.608;13.260;2024-02-26T07:42:43;100185.00;;;15.20
71463;BMP180;59266;52.608;13.260;2024-02-26T07:45:10;100186.00;;;15.20
71463;BMP180;59266;52.608;13.260;2024-02-26T07:47:36;100179.00;;;15.40
71463;BMP180;59266;52.608;13.260;2024-02-26T07:50:08;100182.00;;;16.00
71463;BMP180;59266;52.608;13.260;2024-02-26T07:52:35;100178.00;;;16.70
71463;BMP180;59266;52.608;13.260;2024-02-26T07:55:01;100185.00;;;17.10
71463;BMP180;59266;52.608;13.260;2024-02-26T07:57:32;100178.00;;;16.70
71463;BMP180;59266;52.608;13.260;2024-02-26T08:00:00;100183.00;;;16.00
71463;BMP180;59266;52.608;13.260;2024-02-26T08:02:27;100177.00;;;13.90
71463;BMP180;59266;52.608;13.260;2024-02-26T08:04:54;100191.00;;;13.00
71463;BMP180;59266;52.608;13.260;2024-02-26T08:07:20;100191.00;;;12.40
71463;BMP180;59266;52.608;13.260;2024-02-26T08:09:47;100185.00;;;11.60
71463;BMP180;59266;52.608;13.260;2024-02-26T08:12:14;100187.00;;;12.60
71463;BMP180;59266;52.608;13.260;2024-02-26T08:14:41;100193.00;;;12.20
71463;BMP180;59266;52.608;13.260;2024-02-26T08:17:09;100185.00;;;11.50
71463;BMP180;59266;52.608;13.260;2024-02-26T08:19:36;100192.00;;;11.30
71463;BMP180;59266;52.608;13.260;2024-02-26T08:22:02;100197.00;;;10.70
71463;BMP180;59266;52.608;13.260;2024-02-26T08:24:30;100197.00;;;11.00
71463;BMP180;59266;52.608;13.260;2024-02-26T08:26:57;100204.00;;;11.30
71463;BMP180;59266;52.608;13.260;2024-02-26T08:29:23;100207.00;;;11.40
71463;BMP180;59266;52.608;13.260;2024-02-26T08:31:50;100208.00;;;11.30
71463;BMP180;59266;52.608;13.260;2024-02-26T08:34:17;100214.00;;;12.40
71463;BMP180;59266;52.608;13.260;2024-02-26T08:36:43;100214.00;;;12.40
71463;BMP180;59266;52.608;13.260;2024-02-26T08:39:11;100212.00;;;12.20
71463;BMP180;59266;52.608;13.260;2024-02-26T08:41:40;100203.00;;;12.80
71463;BMP180;59266;52.608;13.260;2024-02-26T08:44:06;100207.00;;;13.30
71463;BMP180;59266;52.608;13.260;2024-02-26T08:46:33;100211.00;;;13.40
71463;BMP180;59266;52.608;13.260;2024-02-26T08:48:59;100208.00;;;12.20
71463;BMP180;59266;52.608;13.260;2024-02-26T08:51:26;100205.00;;;11.40
71463;BMP180;59266;52.608;13.260;2024-02-26T08:53:53;100202.00;;;10.80
71463;BMP180;59266;52.608;13.260;2024-02-26T08:56:20;100201.00;;;10.50
71463;BMP180;59266;52.608;13.260;2024-02-26T08:58:47;100195.00;;;10.10
71463;BMP180;59266;52.608;13.260;2024-02-26T09:01:19;100197.00;;;9.90
71463;BMP180;59266;52.608;13.260;2024-02-26T09:03:46;100192.00;;;9.60
71463;BMP180;59266;52.608;13.260;2024-02-26T09:06:14;100200.00;;;9.60
71463;BMP180;59266;52.608;13.260;2024-02-26T09:08:41;100194.00;;;9.80
71463;BMP180;59266;52.608;13.260;2024-02-26T09:11:08;100198.00;;;9.60
71463;BMP180;59266;52.608;13.260;2024-02-26T09:13:36;100199.00;;;10.00
71463;BMP180;59266;52.608;13.260;2024-02-26T09:16:03;100195.00;;;10.70
71463;BMP180;59266;52.608;13.260;2024-02-26T09:18:29;100195.00;;;10.10
71463;BMP180;59266;52.608;13.260;2024-02-26T09:20:57;100199.00;;;10.50
71463;BMP180;59266;52.608;13.260;2024-02-26T09:23:23;100192.00;;;10.00
71463;BMP180;59266;52.608;13.260;2024-02-26T09:25:50;100198.00;;;10.00
71463;BMP180;59266;52.608;13.260;2024-02-26T09:28:17;100198.00;;;10.20
71463;BMP180;59266;52.608;13.260;2024-02-26T09:30:44;100196.00;;;10.10
71463;BMP180;59266;52.608;13.260;2024-02-26T09:33:10;100210.00;;;10.10
71463;BMP180;59266;52.608;13.260;2024-02-26T09:35:38;100200.00;;;10.50
71463;BMP180;59266;52.608;13.260;2024-02-26T09:38:04;100208.00;;;10.40
71463;BMP180;59266;52.608;13.260;2024-02-26T09:40:33;100212.00;;;10.70
71463;BMP180;59266;52.608;13.260;2024-02-26T09:43:00;100220.00;;;10.70
71463;BMP180;59266;52.608;13.260;2024-02-26T09:45:33;100216.00;;;10.20
71463;BMP180;59266;52.608;13.260;2024-02-26T09:48:00;100212.00;;;10.40
71463;BMP180;59266;52.608;13.260;2024-02-26T09:50:30;100223.00;;;10.40
71463;BMP180;59266;52.608;13.260;2024-02-26T09:52:56;100216.00;;;9.90
71463;BMP180;59266;52.608;13.260;2024-02-26T09:55:26;100219.00;;;10.00
71463;BMP180;59266;52.608;13.260;2024-02-26T09:57:52;100216.00;;;10.30
71463;BMP180;59266;52.608;13.260;2024-02-26T10:00:21;100226.00;;;11.20
71463;BMP180;59266;52.608;13.260;2024-02-26T10:02:48;100221.00;;;10.90
71463;BMP180;59266;52.608;13.260;2024-02-26T10:05:18;100217.00;;;11.10
71463;BMP180;59266;52.608;13.260;2024-02-26T10:07:46;100220.00;;;11.30
71463;BMP180;59266;52.608;13.260;2024-02-26T10:10:14;100218.00;;;11.90
71463;BMP180;59266;52.608;13.260;2024-02-26T10:12:40;100226.00;;;12.60
71463;BMP180;59266;52.608;13.260;2024-02-26T10:15:08;100227.00;;;13.00
71463;BMP180;59266;52.608;13.260;2024-02-26T10:17:35;100224.00;;;13.10
71463;BMP180;59266;52.608;13.260;2024-02-26T10:20:17;100221.00;;;14.40
71463;BMP180;59266;52.608;13.260;2024-02-26T10:22:50;100230.00;;;14.40
71463;BMP180;59266;52.608;13.260;2024-02-26T10:25:18;100217.00;;;16.20
71463;BMP180;59266;52.608;13.260;2024-02-26T10:27:45;100226.00;;;16.30
71463;BMP180;59266;52.608;13.260;2024-02-26T10:30:16;100228.00;;;17.00
71463;BMP180;59266;52.608;13.260;2024-02-26T10:32:45;100226.00;;;16.50
71463;BMP180;59266;52.608;13.260;2024-02-26T10:35:16;100219.00;;;17.50
71463;BMP180;59266;52.608;13.260;2024-02-26T10:37:44;100220.00;;;16.50
71463;BMP180;59266;52.608;13.260;2024-02-26T10:40:11;100222.00;;;16.50
71463;BMP180;59266;52.608;13.260;2024-02-26T10:42:39;100228.00;;;18.70
71463;BMP180;59266;52.608;13.260;2024-02-26T10:45:06;100228.00;;;18.40
71463;BMP180;59266;52.608;13.260;2024-02-26T10:47:33;100229.00;;;19.10
71463;BMP180;59266;52.608;13.260;2024-02-26T10:50:02;100222.00;;;17.90
71463;BMP180;59266;52.608;13.260;2024-02-26T10:52:34;100221.00;;;18.70
71463;BMP180;59266;52.608;13.260;2024-02-26T10:55:05;100215.00;;;18.80
71463;BMP180;59266;52.608;13.260;2024-02-26T10:57:39;100220.00;;;19.80
71463;BMP180;59266;52.608;13.260;2024-02-26T11:00:08;100217.00;;;20.20
71463;BMP180;59266;52.608;13.260;2024-02-26T11:02:40;100226.00;;;20.40
71463;BMP180;59266;52.608;13.260;2024-02-26T11:05:07;100222.00;;;20.40
71463;BMP180;59266;52.608;13.260;2024-02-26T11:07:34;100222.00;;;20.40
71463;BMP180;59266;52.608;13.260;2024-02-26T11:10:06;100217.00;;;21.00
71463;BMP180;59266;52.608;13.260;2024-02-26T11:12:34;100225.00;;;20.80
71463;BMP180;59266;52.608;13.260;2024-02-26T11:15:04;100220.00;;;19.20
71463;BMP180;59266;52.608;13.260;2024-02-26T11:17:31;100228.00;;;19.30
71463;BMP180;59266;52.608;13.260;2024-02-26T11:19:59;100233.00;;;18.10
71463;BMP180;59266;52.608;13.260;2024-02-26T11:22:26;100219.00;;;17.70
71463;BMP180;59266;52.608;13.260;2024-02-26T11:24:54;100225.00;;;17.70
71463;BMP180;59266;52.608;13.260;2024-02-26T11:27:24;100228.00;;;17.50
71463;BMP180;59266;52.608;13.260;2024-02-26T11:29:53;100224.00;;;18.20
71463;BMP180;59266;52.608;13.260;2024-02-26T11:32:21;100224.00;;;17.50
71463;BMP180;59266;52.608;13.260;2024-02-26T11:34:48;100226.00;;;17.70
71463;BMP180;59266;52.608;13.260;2024-02-26T11:37:17;100231.00;;;18.10
71463;BMP180;59266;52.608;13.260;2024-02-26T11:39:45;100232.00;;;18.40
71463;BMP180;59266;52.608;13.260;2024-02-26T11:42:16;100234.00;;;18.00
71463;BMP180;59266;52.608;13.260;2024-02-26T11:44:43;100233.00;;;17.60
71463;BMP180;59266;52.608;13.260;2024-02-26T11:47:14;100232.00;;;17.90
71463;BMP180;59266;52.608;13.260;2024-02-26T11:49:40;100234.00;;;17.30
71463;BMP180;59266;52.608;13.260;2024-02-26T11:52:08;100235.00;;;16.30
71463;BMP180;59266;52.608;13.260;2024-02-26T11:54:48;100239.00;;;15.10
71463;BMP180;59266;52.608;13.260;2024-02-26T11:57:37;100234.00;;;15.70
71463;BMP180;59266;52.608;13.260;2024-02-26T12:00:11;100228.00;;;16.00
71463;BMP180;59266;52.608;13.260;2024-02-26T12:02:46;100228.00;;;15.90
71463;BMP180;59266;52.608;13.260;2024-02-26T12:05:19;100238.00;;;15.80
71463;BMP180;59266;52.608;13.260;2024-02-26T12:07:49;100238.00;;;15.60
71463;BMP180;59266;52.608;13.260;2024-02-26T12:13:03;100241.00;;;15.40
71463;BMP180;59266;52.608;13.260;2024-02-26T12:15:36;100249.00;;;15.10
71463;BMP180;59266;52.608;13.260;2024-02-26T12:18:05;100231.00;;;15.40
71463;BMP180;59266;52.608;13.260;2024-02-26T12:20:32;100234.00;;;15.20
71463;BMP180;59266;52.608;13.260;2024-02-26T12:22:58;100234.00;;;15.30
71463;BMP180;59266;52.608;13.260;2024-02-26T12:25:27;100243.00;;;15.60
71463;BMP180;59266;52.608;13.260;2024-02-26T12:27:54;100236.00;;;15.40
71463;BMP180;59266;52.608;13.260;2024-02-26T12:30:22;100232.00;;;15.50
71463;BMP180;59266;52.608;13.260;2024-02-26T12:32:50;100227.00;;;15.60
71463;BMP180;59266;52.608;13.260;2024-02-26T12:35:17;100233.00;;;15.20
71463;BMP180;59266;52.608;13.260;2024-02-26T12:37:44;100237.00;;;15.10
71463;BMP180;59266;52.608;13.260;2024-02-26T12:40:11;100238.00;;;15.20
71463;BMP180;59266;52.608;13.260;2024-02-26T12:42:38;100229.00;;;15.20
71463;BMP180;59266;52.608;13.260;2024-02-26T12:45:10;100229.00;;;15.60
71463;BMP180;59266;52.608;13.260;2024-02-26T12:47:38;100229.00;;;15.30
71463;BMP180;59266;52.608;13.260;2024-02-26T12:50:05;100239.00;;;15.10
71463;BMP180;59266;52.608;13.260;2024-02-26T12:52:39;100238.00;;;15.60
71463;BMP180;59266;52.608;13.260;2024-02-26T12:55:06;100245.00;;;15.10
71463;BMP180;59266;52.608;13.260;2024-02-26T12:57:37;100242.00;;;15.00
71463;BMP180;59266;52.608;13.260;2024-02-26T13:00:05;100243.00;;;15.00
71463;BMP180;59266;52.608;13.260;2024-02-26T13:02:33;100246.00;;;14.90
71463;BMP180;59266;52.608;13.260;2024-02-26T13:05:02;100242.00;;;14.90
71463;BMP180;59266;52.608;13.260;2024-02-26T13:07:30;100243.00;;;15.00
71463;BMP180;59266;52.608;13.260;2024-02-26T13:09:57;100233.00;;;15.30
71463;BMP180;59266;52.608;13.260;2024-02-26T13:12:23;100238.00;;;14.80
71463;BMP180;59266;52.608;13.260;2024-02-26T13:15:02;100233.00;;;14.70
71463;BMP180;59266;52.608;13.260;2024-02-26T13:17:32;100231.00;;;14.70
71463;BMP180;59266;52.608;13.260;2024-02-26T13:19:59;100238.00;;;14.70
71463;BMP180;59266;52.608;13.260;2024-02-26T13:22:26;100243.00;;;14.90
71463;BMP180;59266;52.608;13.260;2024-02-26T13:24:59;100244.00;;;14.90
71463;BMP180;59266;52.608;13.260;2024-02-26T13:27:26;100244.00;;;14.60
71463;BMP180;59266;52.608;13.260;2024-02-26T13:30:09;100248.00;;;14.10
71463;BMP180;59266;52.608;13.260;2024-02-26T13:32:39;100243.00;;;14.20
71463;BMP180;59266;52.608;13.260;2024-02-26T13:35:08;100248.00;;;14.10
71463;BMP180;59266;52.608;13.260;2024-02-26T13:37:36;100243.00;;;14.50
71463;BMP180;59266;52.608;13.260;2024-02-26T13:40:10;100252.00;;;14.50
71463;BMP180;59266;52.608;13.260;2024-02-26T13:42:38;100253.00;;;14.60
71463;BMP180;59266;52.608;13.260;2024-02-26T13:45:06;100252.00;;;14.50
71463;BMP180;59266;52.608;13.260;2024-02-26T13:47:35;100249.00;;;14.80
71463;BMP180;59266;52.608;13.260;2024-02-26T13:50:02;100256.00;;;14.50
71463;BMP180;59266;52.608;13.260;2024-02-26T13:52:29;100245.00;;;14.40